Time;durP1;ratioP1;P1;durP2;ratioP2;P2;SDS_P1;SDS_P2;PMS_P1;PMS_P2;Temp;Humidity;BMP_temperature;BMP_pressure;BME280_temperature;BME280_humidity;BME280_pressure;Samples;Min_cycle;Max_cycle;Signal;HPM_P1;HPM_P2
2022/09/02 00:01:58;;;;;;;0.80;0.70;;;;;;;18.60;64.26;100291.63;4992098;28;20465;-50
2022/09/02 00:04:25;;;;;;;0.80;0.73;;;;;;;18.63;64.37;100287.88;4975275;28;20455;-51
2022/09/02 00:06:53;;;;;;;2.43;1.00;;;;;;;18.64;64.03;100287.00;4975157;28;20455;-51
2022/09/02 00:09:21;;;;;;;0.80;0.57;;;;;;;18.58;64.56;100288.19;4980609;28;20523;-51
2022/09/02 00:11:50;;;;;;;0.73;0.60;;;;;;;18.53;63.99;100279.53;4993585;28;20454;-51
2022/09/02 00:14:24;;;;;;;1.77;0.90;;;;;;;18.64;63.81;100277.09;4994314;28;20802;-51
2022/09/02 00:16:51;;;;;;;2.57;0.83;;;;;;;18.50;64.37;100285.13;4994662;28;20450;-51
2022/09/02 00:19:20;;;;;;;0.90;0.67;;;;;;;18.50;64.34;100278.84;4994641;28;20489;-51
2022/09/02 00:21:47;;;;;;;1.83;0.90;;;;;;;18.49;64.44;100277.97;4980461;28;20458;-51
2022/09/02 00:24:16;;;;;;;1.00;0.70;;;;;;;18.47;64.27;100277.19;4975253;28;20454;-51
2022/09/02 00:26:43;;;;;;;1.60;1.30;;;;;;;18.48;64.79;100275.38;4976413;28;20468;-50
2022/09/02 00:29:11;;;;;;;1.30;1.20;;;;;;;18.47;64.63;100273.66;4993257;28;20456;-51
2022/09/02 00:31:38;;;;;;;2.90;0.93;;;;;;;18.59;64.35;100272.91;4994181;28;20454;-51
2022/09/02 00:34:04;;;;;;;1.33;0.73;;;;;;;18.45;64.78;100279.13;4994186;28;20962;-51
2022/09/02 00:36:32;;;;;;;1.10;1.00;;;;;;;18.46;65.13;100271.91;4993323;28;20474;-50
2022/09/02 00:38:58;;;;;;;0.97;0.67;;;;;;;18.68;63.51;100274.19;4985236;28;20498;-51
2022/09/02 00:41:27;;;;;;;0.87;0.87;;;;;;;18.75;63.98;100271.00;4990207;28;21025;-51
2022/09/02 00:44:05;;;;;;;0.80;0.70;;;;;;;18.80;63.92;100276.13;4994187;28;20895;-51
2022/09/02 00:46:32;;;;;;;2.90;1.00;;;;;;;18.84;63.76;100273.13;4980823;28;20485;-51
2022/09/02 00:49:23;;;;;;;1.00;0.80;;;;;;;18.83;63.68;100273.22;4994097;28;20446;-51
2022/09/02 00:51:54;;;;;;;2.40;1.47;;;;;;;18.66;64.32;100262.66;4994071;28;20445;-51
2022/09/02 00:54:22;;;;;;;0.70;0.70;;;;;;;18.48;65.60;100268.16;4993740;28;20458;-51
2022/09/02 00:56:50;;;;;;;0.70;0.70;;;;;;;18.44;65.75;100274.72;4983161;28;20450;-51
2022/09/02 01:00:04;;;;;;;0.90;0.70;;;;;;;18.18;66.54;100265.53;5089883;27;20526;-53
2022/09/02 01:02:31;;;;;;;6.67;0.67;;;;;;;18.22;66.11;100261.69;5054690;28;20454;-53
2022/09/02 01:04:59;;;;;;;0.70;0.50;;;;;;;18.11;67.29;100266.00;5069488;28;20833;-52
2022/09/02 01:07:32;;;;;;;0.80;0.77;;;;;;;18.04;67.31;100257.41;5053173;28;20457;-53
2022/09/02 01:10:01;;;;;;;0.80;0.70;;;;;;;17.93;67.64;100262.56;5048584;28;20442;-52
2022/09/02 01:12:30;;;;;;;0.80;0.80;;;;;;;18.06;67.11;100259.06;5053595;28;20452;-52
2022/09/02 01:14:57;;;;;;;18.07;1.30;;;;;;;18.16;67.24;100264.75;5058446;28;20475;-53
2022/09/02 01:17:25;;;;;;;0.70;0.60;;;;;;;18.07;67.05;100262.59;5049150;28;20849;-53
2022/09/02 01:20:00;;;;;;;1.10;0.97;;;;;;;17.99;67.31;100263.09;5049108;28;20819;-52
2022/09/02 01:22:31;;;;;;;0.60;0.40;;;;;;;18.00;67.32;100259.44;5068153;28;20452;-52
2022/09/02 01:25:04;;;;;;;2.03;0.77;;;;;;;18.01;67.38;100263.00;5069046;28;20994;-53
2022/09/02 01:27:31;;;;;;;0.90;0.77;;;;;;;17.97;67.40;100265.00;5069115;28;20446;-52
2022/09/02 01:29:59;;;;;;;3.53;0.97;;;;;;;17.88;68.00;100262.84;5068903;28;20457;-53
2022/09/02 01:32:27;;;;;;;4.10;0.70;;;;;;;17.84;68.27;100261.31;5068883;28;20446;-52
2022/09/02 01:34:54;;;;;;;1.10;0.90;;;;;;;17.71;68.34;100265.69;5069013;28;20466;-52
2022/09/02 01:37:21;;;;;;;0.70;0.57;;;;;;;17.74;68.58;100265.47;5068988;28;20446;-52
2022/09/02 01:39:49;;;;;;;6.00;1.10;;;;;;;17.46;69.28;100259.00;5066569;28;20825;-52
2022/09/02 01:42:15;;;;;;;0.90;0.77;;;;;;;17.35;69.61;100261.41;5049214;28;20446;-52
2022/09/02 01:44:45;;;;;;;0.77;0.70;;;;;;;17.25;70.16;100259.34;5050787;28;20471;-52
2022/09/02 01:47:14;;;;;;;30.20;0.87;;;;;;;17.09;70.03;100260.19;5068898;28;20458;-53
2022/09/02 01:49:40;;;;;;;1.10;0.87;;;;;;;17.08;70.26;100261.16;5068571;28;20986;-52
2022/09/02 01:52:08;;;;;;;2.90;0.67;;;;;;;16.95;70.85;100261.91;5068820;28;20449;-52
2022/09/02 01:54:35;;;;;;;0.80;0.67;;;;;;;16.70;71.13;100251.66;5068597;28;20446;-52
2022/09/02 01:57:02;;;;;;;0.97;0.80;;;;;;;16.91;71.22;100266.59;5068472;28;20450;-52
2022/09/02 01:59:29;;;;;;;0.90;0.80;;;;;;;16.49;71.90;100259.91;5062866;28;20509;-52
2022/09/02 02:01:55;;;;;;;0.70;0.50;;;;;;;16.45;72.29;100262.84;5048733;28;20443;-52
2022/09/02 02:04:23;;;;;;;16.23;1.53;;;;;;;16.39;72.86;100266.69;5048479;28;20486;-52
2022/09/02 02:06:51;;;;;;;0.70;0.70;;;;;;;16.42;72.34;100276.38;5048579;28;20486;-52
2022/09/02 02:09:18;;;;;;;6.33;1.17;;;;;;;16.62;72.19;100272.66;5048400;28;20458;-52
2022/09/02 02:11:46;;;;;;;1.17;0.80;;;;;;;16.28;72.88;100267.25;5055381;28;20805;-52
2022/09/02 02:14:12;;;;;;;1.57;0.90;;;;;;;16.40;72.76;100263.06;5054732;28;20944;-52
2022/09/02 02:16:39;;;;;;;0.87;0.70;;;;;;;16.15;73.67;100263.47;5054987;28;20471;-52
2022/09/02 02:19:05;;;;;;;3.70;1.10;;;;;;;15.99;74.56;100273.25;5054917;28;20494;-52
2022/09/02 02:21:32;;;;;;;1.83;0.60;;;;;;;16.14;74.00;100268.91;5054825;28;20455;-52
2022/09/02 02:24:00;;;;;;;2.63;2.47;;;;;;;16.23;73.47;100272.00;5035848;28;21024;-52
2022/09/02 02:26:27;;;;;;;1.47;0.67;;;;;;;16.02;74.10;100267.72;5034529;28;20477;-52
2022/09/02 02:28:54;;;;;;;1.20;0.93;;;;;;;15.77;74.73;100265.47;5035089;28;20448;-52
2022/09/02 02:31:21;;;;;;;1.13;0.57;;;;;;;15.76;75.02;100257.47;5034870;28;20455;-52
2022/09/02 02:33:47;;;;;;;9.40;0.93;;;;;;;15.64;75.85;100258.97;5040834;28;20981;-52
2022/09/02 02:36:14;;;;;;;0.73;0.60;;;;;;;15.69;75.97;100260.47;5054568;28;20466;-52
2022/09/02 02:38:43;;;;;;;0.60;0.50;;;;;;;15.63;76.15;100267.97;5047779;28;20997;-52
2022/09/02 02:41:09;;;;;;;0.93;0.77;;;;;;;15.51;76.39;100264.03;5034377;28;20454;-52
2022/09/02 02:43:36;;;;;;;1.00;0.90;;;;;;;15.73;75.99;100260.31;5034456;28;20959;-52
2022/09/02 02:46:03;;;;;;;2.30;1.17;;;;;;;15.51;76.43;100266.72;5057749;22;20520;-50
2022/09/02 02:48:29;;;;;;;0.70;0.50;;;;;;;15.52;77.06;100265.78;5054493;28;20900;-50
2022/09/02 02:50:56;;;;;;;1.37;1.27;;;;;;;15.38;76.81;100268.25;5054429;28;20447;-49
2022/09/02 02:53:22;;;;;;;1.47;1.37;;;;;;;15.78;75.63;100258.28;5054223;28;20451;-49
2022/09/02 02:55:49;;;;;;;5.20;1.63;;;;;;;15.44;76.26;100267.06;5053936;28;20477;-50
2022/09/02 02:58:17;;;;;;;1.00;0.83;;;;;;;15.30;77.18;100265.06;5054146;28;21050;-50
2022/09/02 03:00:44;;;;;;;1.40;0.80;;;;;;;15.89;75.12;100261.25;5039794;28;20532;-49
2022/09/02 03:03:11;;;;;;;0.73;0.73;;;;;;;15.11;77.63;100262.41;5034349;28;20934;-50
2022/09/02 03:05:38;;;;;;;1.10;0.80;;;;;;;15.27;76.93;100259.88;5033965;28;20467;-50
2022/09/02 03:08:07;;;;;;;0.90;0.70;;;;;;;15.18;77.34;100262.97;5033917;28;20469;-50
2022/09/02 03:10:36;;;;;;;1.10;0.77;;;;;;;15.09;77.98;100264.31;5033864;28;20454;-49
2022/09/02 03:13:03;;;;;;;0.97;0.90;;;;;;;15.20;77.61;100255.75;5034171;28;20451;-49
2022/09/02 03:15:29;;;;;;;1.37;1.00;;;;;;;14.71;79.33;100264.28;5033973;28;20475;-50
2022/09/02 03:17:56;;;;;;;1.03;0.93;;;;;;;15.01;78.24;100263.78;5043084;28;20509;-48
2022/09/02 03:20:24;;;;;;;1.07;0.97;;;;;;;14.91;79.03;100271.38;5053445;28;20455;-49
2022/09/02 03:22:53;;;;;;;0.80;0.80;;;;;;;14.69;78.89;100257.28;5053933;28;20449;-49
2022/09/02 03:25:21;;;;;;;0.70;0.60;;;;;;;14.93;79.03;100256.09;5053798;28;20894;-50
2022/09/02 03:27:48;;;;;;;0.63;0.63;;;;;;;14.77;78.88;100265.78;5053591;28;20952;-50
2022/09/02 03:30:20;;;;;;;1.00;0.90;;;;;;;14.65;79.55;100261.00;5053597;28;20457;-50
2022/09/02 03:32:47;;;;;;;3.70;1.40;;;;;;;14.57;80.32;100266.72;5053637;28;20450;-50
2022/09/02 03:35:17;;;;;;;0.80;0.70;;;;;;;14.99;78.94;100258.50;5053208;28;20466;-49
2022/09/02 03:37:45;;;;;;;2.23;1.10;;;;;;;14.60;80.94;100258.56;5053625;28;20452;-50
2022/09/02 03:40:17;;;;;;;0.70;0.50;;;;;;;14.59;80.95;100258.63;5053508;28;20446;-50
2022/09/02 03:42:46;;;;;;;0.90;0.87;;;;;;;14.47;82.14;100260.91;5053364;28;20557;-50
2022/09/02 03:45:14;;;;;;;0.93;0.80;;;;;;;14.57;82.16;100257.81;5053018;28;20478;-50
2022/09/02 03:47:49;;;;;;;1.87;1.63;;;;;;;14.68;81.37;100258.22;5052981;28;20947;-50
2022/09/02 03:50:18;;;;;;;2.60;0.83;;;;;;;14.47;82.23;100252.03;5053900;28;20457;-50
2022/09/02 03:52:45;;;;;;;1.03;0.90;;;;;;;14.56;81.98;100259.63;5052966;28;20457;-50
2022/09/02 03:55:12;;;;;;;1.67;1.57;;;;;;;14.36;82.15;100263.16;5053165;28;20473;-49
2022/09/02 03:57:38;;;;;;;0.97;0.90;;;;;;;14.27;83.02;100260.03;5053144;28;20455;-50
2022/09/02 04:00:12;;;;;;;2.80;1.33;;;;;;;14.11;83.44;100260.69;5043762;28;20497;-50
2022/09/02 04:02:39;;;;;;;1.13;1.00;;;;;;;14.07;84.11;100269.78;5033194;28;20469;-51
2022/09/02 04:05:06;;;;;;;1.20;0.87;;;;;;;13.99;83.36;100268.41;5033015;28;20472;-50
2022/09/02 04:07:39;;;;;;;0.93;0.77;;;;;;;14.01;83.95;100269.19;5032873;28;20458;-50
2022/09/02 04:10:08;;;;;;;1.47;1.37;;;;;;;13.79;85.36;100263.88;5033003;28;20451;-50
2022/09/02 04:12:36;;;;;;;1.17;1.00;;;;;;;13.68;85.57;100260.78;5032849;28;20451;-50
2022/09/02 04:15:04;;;;;;;1.80;1.70;;;;;;;13.60;85.35;100259.31;5032698;28;20476;-50
2022/09/02 04:17:30;;;;;;;2.97;1.37;;;;;;;13.58;85.25;100257.66;5033049;28;20451;-51
2022/09/02 04:19:57;;;;;;;12.13;1.53;;;;;;;13.58;86.96;100266.53;5032895;28;20495;-50
2022/09/02 04:22:23;;;;;;;3.23;1.10;;;;;;;13.58;86.86;100261.19;5035743;28;20499;-50
2022/09/02 04:24:50;;;;;;;3.67;1.40;;;;;;;13.56;86.34;100267.50;5034974;28;20458;-50
2022/09/02 04:27:16;;;;;;;1.00;0.90;;;;;;;13.60;86.56;100261.13;5033337;28;20458;-51
2022/09/02 04:29:43;;;;;;;12.23;1.30;;;;;;;13.60;86.56;100255.78;5032590;28;20459;-50
2022/09/02 04:32:10;;;;;;;4.50;1.57;;;;;;;13.52;86.99;100266.75;5032475;28;20475;-51
2022/09/02 04:34:36;;;;;;;1.37;1.27;;;;;;;14.34;83.24;100261.50;5032616;28;20455;-51
2022/09/02 04:37:03;;;;;;;12.60;1.23;;;;;;;13.63;84.95;100264.53;5032463;28;20474;-51
2022/09/02 04:39:29;;;;;;;1.77;1.03;;;;;;;13.61;85.41;100260.19;5032454;28;20498;-51
2022/09/02 04:41:56;;;;;;;6.67;0.80;;;;;;;13.59;84.47;100262.06;5032291;28;20462;-50
2022/09/02 04:44:22;;;;;;;0.80;0.77;;;;;;;13.43;85.67;100269.84;5032524;28;20455;-51
2022/09/02 04:46:48;;;;;;;1.70;1.60;;;;;;;13.39;85.61;100262.00;5032136;28;20499;-51
2022/09/02 04:49:16;;;;;;;1.67;1.57;;;;;;;13.12;86.53;100263.94;5032416;28;20448;-51
2022/09/02 04:51:43;;;;;;;1.00;0.87;;;;;;;13.11;86.59;100264.84;5032410;28;20455;-50
2022/09/02 04:54:09;;;;;;;3.13;1.10;;;;;;;13.05;86.60;100272.19;5032051;28;20944;-51
2022/09/02 04:56:37;;;;;;;1.43;1.33;;;;;;;13.07;87.28;100264.13;5032002;28;20547;-50
2022/09/02 04:59:03;;;;;;;1.47;0.90;;;;;;;13.09;87.79;100277.41;5032164;28;20491;-51
2022/09/02 05:01:33;;;;;;;2.67;1.07;;;;;;;13.20;88.37;100275.22;5032223;28;20451;-51
2022/09/02 05:04:02;;;;;;;1.40;1.00;;;;;;;13.05;88.74;100279.31;5032008;28;20451;-51
2022/09/02 05:06:29;;;;;;;3.90;1.27;;;;;;;13.13;88.25;100277.22;5031988;28;20490;-51
2022/09/02 05:08:58;;;;;;;1.63;0.90;;;;;;;12.97;89.36;100273.41;5032346;28;20447;-50
2022/09/02 05:11:27;;;;;;;7.10;0.97;;;;;;;13.05;89.75;100280.19;5032383;28;20454;-51
2022/09/02 05:13:56;;;;;;;12.73;1.27;;;;;;;13.20;88.89;100275.22;5032362;28;20448;-50
2022/09/02 05:16:26;;;;;;;1.70;1.60;;;;;;;13.36;88.49;100271.00;5032042;28;20471;-51
2022/09/02 05:18:53;;;;;;;2.03;1.50;;;;;;;13.52;87.44;100272.09;5031965;28;20498;-51
2022/09/02 05:21:22;;;;;;;2.10;2.00;;;;;;;13.98;86.17;100270.22;5031977;28;20802;-51
2022/09/02 05:23:49;;;;;;;2.20;1.03;;;;;;;14.60;83.63;100266.56;5031856;28;20967;-50
2022/09/02 05:26:19;;;;;;;1.00;1.00;;;;;;;14.95;81.65;100273.00;5031853;28;20474;-51
2022/09/02 05:28:46;;;;;;;2.13;1.97;;;;;;;14.91;81.50;100273.19;5031677;28;20940;-51
2022/09/02 05:31:16;;;;;;;1.50;1.40;;;;;;;14.88;81.46;100278.69;5032378;28;20452;-52
2022/09/02 05:33:46;;;;;;;3.10;1.23;;;;;;;15.08;81.11;100271.47;5031955;28;20487;-50
2022/09/02 05:36:16;;;;;;;1.17;1.10;;;;;;;15.35;79.85;100269.28;5031499;28;20956;-50
2022/09/02 05:38:44;;;;;;;1.00;1.00;;;;;;;15.51;79.17;100272.06;5032020;28;20861;-50
2022/09/02 05:41:14;;;;;;;1.27;1.17;;;;;;;15.93;77.41;100274.44;5031854;28;20455;-50
2022/09/02 05:43:46;;;;;;;12.13;3.13;;;;;;;16.08;76.81;100278.16;5031871;28;20448;-51
2022/09/02 05:46:19;;;;;;;1.57;1.47;;;;;;;16.15;75.99;100276.00;5035060;28;20487;-51
2022/09/02 05:49:06;;;;;;;1.33;1.23;;;;;;;16.34;75.38;100275.94;5035364;28;20451;-51
2022/09/02 05:51:36;;;;;;;1.90;1.40;;;;;;;16.24;76.22;100276.41;5035574;28;20469;-51
2022/09/02 05:54:02;;;;;;;7.00;1.17;;;;;;;16.28;75.96;100277.13;5035502;28;20457;-51
2022/09/02 05:56:29;;;;;;;1.57;1.47;;;;;;;16.07;76.88;100271.06;5035087;28;20848;-51
2022/09/02 05:58:57;;;;;;;55.50;2.20;;;;;;;16.11;76.75;100269.94;5035194;28;20497;-51
2022/09/02 06:01:26;;;;;;;2.00;1.90;;;;;;;16.15;76.97;100279.56;5035517;28;20446;-51
2022/09/02 06:03:52;;;;;;;1.17;1.07;;;;;;;15.98;77.40;100275.06;5035344;28;20451;-50
2022/09/02 06:06:21;;;;;;;1.90;1.10;;;;;;;15.73;78.23;100269.22;5035163;28;20486;-51
2022/09/02 06:08:49;;;;;;;1.63;1.50;;;;;;;15.98;77.54;100276.88;5035117;28;20484;-51
2022/09/02 06:11:16;;;;;;;3.93;1.70;;;;;;;16.07;77.00;100273.75;5035038;28;20454;-51
2022/09/02 06:13:43;;;;;;;1.60;1.50;;;;;;;15.98;77.74;100279.56;5034966;28;20469;-51
2022/09/02 06:16:14;;;;;;;2.07;1.87;;;;;;;16.15;77.27;100273.34;5034974;28;20975;-51
2022/09/02 06:18:42;;;;;;;2.27;1.90;;;;;;;15.99;77.45;100265.22;5034776;28;20535;-51
2022/09/02 06:21:09;;;;;;;2.27;1.60;;;;;;;16.05;77.76;100272.09;5035080;28;20458;-51
2022/09/02 06:23:38;;;;;;;1.67;1.57;;;;;;;16.12;77.14;100274.38;5034884;28;20466;-51
2022/09/02 06:26:06;;;;;;;1.80;1.70;;;;;;;16.33;76.91;100268.84;5034715;28;20506;-51
2022/09/02 06:28:33;;;;;;;1.73;1.63;;;;;;;16.34;76.68;100274.13;5034938;28;20448;-51
2022/09/02 06:31:05;;;;;;;3.87;1.53;;;;;;;16.75;76.04;100271.94;5034763;28;20986;-51
2022/09/02 06:33:32;;;;;;;2.30;2.07;;;;;;;16.60;75.32;100264.69;5034938;28;20494;-51
2022/09/02 06:35:58;;;;;;;6.47;1.43;;;;;;;16.65;75.75;100269.81;5034673;28;20471;-51
2022/09/02 06:38:25;;;;;;;1.20;1.10;;;;;;;17.12;75.11;100268.06;5034867;28;20509;-51
2022/09/02 06:40:54;;;;;;;3.23;1.40;;;;;;;16.97;74.41;100265.38;5034461;28;20487;-51
2022/09/02 06:43:21;;;;;;;4.17;1.23;;;;;;;17.41;73.04;100266.47;5034474;28;20448;-51
2022/09/02 06:45:47;;;;;;;0.90;0.90;;;;;;;17.50;72.38;100264.19;5034449;28;20475;-49
2022/09/02 06:48:14;;;;;;;5.93;1.70;;;;;;;17.49;72.77;100263.31;5034379;28;20539;-50
2022/09/02 06:50:43;;;;;;;0.93;0.93;;;;;;;17.44;72.62;100258.22;5034338;28;20487;-50
2022/09/02 06:53:11;;;;;;;17.03;1.73;;;;;;;17.28;73.46;100260.06;5033991;28;20936;-50
2022/09/02 06:55:40;;;;;;;23.30;2.10;;;;;;;17.57;73.07;100254.81;5034513;28;20471;-49
2022/09/02 06:58:06;;;;;;;1.43;0.80;;;;;;;17.34;74.22;100254.31;5034299;28;20452;-49
2022/09/02 07:00:34;;;;;;;1.13;1.03;;;;;;;17.56;73.42;100253.09;5034129;28;20483;-50
2022/09/02 07:06:02;;;;;;;0.80;0.80;;;;;;;17.74;72.37;100252.91;5033937;28;20471;-49
2022/09/02 07:08:29;;;;;;;12.07;2.00;;;;;;;17.95;72.44;100248.06;5025792;28;20451;-49
2022/09/02 07:10:55;;;;;;;9.47;1.70;;;;;;;18.18;71.48;100248.50;5034076;28;20444;-49
2022/09/02 07:13:21;;;;;;;1.73;0.93;;;;;;;18.08;72.66;100247.34;5034073;28;20509;-49
2022/09/02 07:15:48;;;;;;;3.53;1.30;;;;;;;18.20;71.55;100249.28;5033736;28;20506;-50
2022/09/02 07:18:15;;;;;;;0.77;0.77;;;;;;;18.54;70.21;100254.34;5033810;28;20451;-49
2022/09/02 07:20:45;;;;;;;1.33;0.73;;;;;;;18.92;68.77;100254.66;5033956;28;20494;-49
2022/09/02 07:23:11;;;;;;;0.70;0.70;;;;;;;19.19;67.04;100243.94;5034029;28;20444;-50
2022/09/02 07:25:40;;;;;;;7.60;0.90;;;;;;;19.55;65.72;100247.03;5033773;28;20464;-50
2022/09/02 07:28:08;;;;;;;2.17;1.40;;;;;;;19.83;64.27;100242.38;5033737;28;20459;-50
2022/09/02 07:30:34;;;;;;;0.73;0.70;;;;;;;19.76;63.28;100230.28;5033345;28;20454;-50
2022/09/02 07:33:01;;;;;;;1.93;1.13;;;;;;;19.93;62.56;100237.22;5033733;28;20452;-49
2022/09/02 07:35:28;;;;;;;0.70;0.70;;;;;;;20.15;61.70;100235.75;5033322;28;20471;-49
2022/09/02 07:37:54;;;;;;;0.60;0.50;;;;;;;19.92;62.03;100237.34;5033667;28;20462;-49
2022/09/02 07:40:22;;;;;;;1.37;1.27;;;;;;;20.19;61.92;100237.28;5033335;28;20495;-49
2022/09/02 07:42:49;;;;;;;1.10;1.00;;;;;;;20.17;61.88;100239.22;5033241;28;20832;-49
2022/09/02 07:45:16;;;;;;;1.10;1.00;;;;;;;20.13;61.62;100236.72;5033080;28;20495;-50
2022/09/02 07:47:42;;;;;;;2.50;1.30;;;;;;;20.47;61.27;100241.66;5033271;28;20947;-49
2022/09/02 07:50:09;;;;;;;0.60;0.40;;;;;;;20.41;59.78;100246.50;5033058;28;20790;-49
2022/09/02 07:52:49;;;;;;;3.37;0.90;;;;;;;20.33;60.07;100237.19;5033173;28;20470;-49
2022/09/02 07:55:15;;;;;;;0.70;0.60;;;;;;;20.47;59.89;100245.22;5033242;28;20478;-49
2022/09/02 07:57:42;;;;;;;0.80;0.60;;;;;;;20.45;59.81;100239.06;5033094;28;20460;-49
2022/09/02 08:00:11;;;;;;;0.70;0.63;;;;;;;20.83;59.19;100235.44;5033162;28;20480;-49
2022/09/02 08:02:37;;;;;;;1.00;0.93;;;;;;;20.66;59.05;100225.84;5033200;28;20447;-51
2022/09/02 08:05:04;;;;;;;2.10;0.70;;;;;;;20.64;59.29;100238.63;5033108;28;20537;-51
2022/09/02 08:07:31;;;;;;;1.70;0.97;;;;;;;20.90;58.06;100229.50;5032356;28;20458;-51
2022/09/02 08:09:59;;;;;;;2.53;1.13;;;;;;;20.78;58.28;100238.50;5032914;28;20459;-52
2022/09/02 08:12:27;;;;;;;4.20;0.87;;;;;;;21.14;57.09;100236.81;5032659;28;20455;-51
2022/09/02 08:14:54;;;;;;;4.37;3.43;;;;;;;21.01;57.00;100231.44;5032957;28;20447;-52
2022/09/02 08:17:21;;;;;;;1.83;0.87;;;;;;;21.20;56.07;100228.25;5032616;28;20474;-52
2022/09/02 08:19:47;;;;;;;0.80;0.80;;;;;;;21.26;55.87;100230.53;5032753;28;20494;-51
2022/09/02 08:22:14;;;;;;;11.90;2.27;;;;;;;21.28;56.34;100228.59;5032718;28;20459;-51
2022/09/02 08:24:40;;;;;;;4.67;1.03;;;;;;;21.38;55.73;100224.22;5032595;28;20458;-51
2022/09/02 08:27:07;;;;;;;0.90;0.70;;;;;;;21.25;56.23;100231.53;5032138;28;20452;-51
2022/09/02 08:29:34;;;;;;;21.33;1.03;;;;;;;21.82;55.40;100228.97;5032331;28;20480;-51
2022/09/02 08:32:00;;;;;;;2.53;2.33;;;;;;;21.93;54.15;100225.47;5032442;28;20452;-51
2022/09/02 08:34:28;;;;;;;0.67;0.57;;;;;;;22.15;52.26;100233.66;5032497;28;20448;-51
2022/09/02 08:36:56;;;;;;;1.50;0.63;;;;;;;22.22;52.35;100230.50;5032256;28;20482;-51
2022/09/02 08:39:23;;;;;;;0.87;0.80;;;;;;;22.23;53.32;100227.66;5032589;28;20499;-51
2022/09/02 08:41:55;;;;;;;0.63;0.63;;;;;;;22.22;52.32;100235.91;5033531;28;20479;-51
2022/09/02 08:44:23;;;;;;;1.13;0.80;;;;;;;22.11;52.97;100229.47;5032766;28;20455;-51
2022/09/02 08:46:55;;;;;;;0.97;0.80;;;;;;;22.01;53.16;100228.44;5032580;28;20550;-52
2022/09/02 08:49:28;;;;;;;1.23;0.57;;;;;;;21.85;52.78;100230.59;5032213;28;20448;-51
2022/09/02 08:51:57;;;;;;;2.10;0.80;;;;;;;22.06;52.72;100228.97;5032125;28;20454;-51
2022/09/02 08:54:47;;;;;;;0.87;0.63;;;;;;;22.50;52.00;100230.06;5032230;28;20817;-52
2022/09/02 08:57:13;;;;;;;1.00;0.77;;;;;;;22.00;52.84;100226.69;5032291;28;20450;-52
2022/09/02 08:59:42;;;;;;;1.03;0.80;;;;;;;21.92;53.41;100223.72;5032120;28;21023;-52
2022/09/02 09:02:15;;;;;;;1.23;0.87;;;;;;;22.44;52.14;100215.13;5032124;28;20530;-52
2022/09/02 09:05:09;;;;;;;0.80;0.80;;;;;;;22.49;52.10;100214.78;5031897;28;20453;-51
2022/09/02 09:07:58;;;;;;;6.27;0.83;;;;;;;22.82;51.28;100215.78;5029376;28;20467;-51
2022/09/02 09:10:41;;;;;;;4.67;0.70;;;;;;;22.80;51.39;100220.47;5031987;28;20447;-52
2022/09/02 09:13:52;;;;;;;6.53;0.77;;;;;;;22.86;51.13;100212.72;5032225;28;20509;-51
2022/09/02 09:16:31;;;;;;;1.00;1.00;;;;;;;22.36;50.36;100205.91;5032038;28;20480;-51
2022/09/02 09:19:24;;;;;;;0.63;0.47;;;;;;;22.95;50.51;100195.72;5031807;28;20979;-51
2022/09/02 09:21:55;;;;;;;1.00;0.80;;;;;;;23.16;49.29;100200.34;5035956;28;20440;-52
2022/09/02 09:24:30;;;;;;;10.20;1.03;;;;;;;23.16;49.99;100195.78;5036061;28;20470;-52
2022/09/02 09:26:58;;;;;;;6.50;2.03;;;;;;;23.17;49.81;100191.25;5035772;28;20960;-51
2022/09/02 09:29:25;;;;;;;0.80;0.50;;;;;;;23.13;49.88;100197.88;5035808;28;20447;-51
2022/09/02 09:31:58;;;;;;;18.20;0.90;;;;;;;23.35;49.40;100200.56;5035847;28;21017;-51
2022/09/02 09:34:51;;;;;;;0.90;0.70;;;;;;;23.24;48.47;100195.16;5036205;28;20447;-52
2022/09/02 09:37:30;;;;;;;0.80;0.80;;;;;;;23.01;48.91;100202.47;5035100;28;20506;-51
2022/09/02 09:40:24;;;;;;;0.93;0.90;;;;;;;22.81;48.26;100205.91;5035622;28;20490;-51
2022/09/02 09:43:13;;;;;;;0.67;0.43;;;;;;;23.18;48.42;100193.84;5035935;28;20528;-51
2022/09/02 09:45:45;;;;;;;3.60;0.60;;;;;;;23.13;47.83;100198.75;5035508;28;20487;-50
2022/09/02 09:48:32;;;;;;;0.83;0.80;;;;;;;23.13;47.12;100182.47;5035437;28;20522;-51
2022/09/02 09:50:58;;;;;;;0.70;0.40;;;;;;;23.43;45.72;100187.19;5035699;28;20439;-51
2022/09/02 09:53:24;;;;;;;0.60;0.40;;;;;;;23.26;46.28;100177.75;5035461;28;20448;-51
2022/09/02 09:56:00;;;;;;;2.43;0.83;;;;;;;23.29;45.75;100185.63;5035353;28;20478;-51
2022/09/02 09:58:37;;;;;;;0.60;0.50;;;;;;;23.58;44.94;100190.53;5035567;28;20443;-51
2022/09/02 10:01:20;;;;;;;1.10;1.00;;;;;;;23.40;44.47;100178.47;5035552;28;20489;-51
2022/09/02 10:03:54;;;;;;;1.57;0.97;;;;;;;23.27;46.30;100170.50;5035535;28;20447;-50
2022/09/02 10:06:28;;;;;;;0.80;0.80;;;;;;;23.75;45.33;100168.25;5035254;28;20479;-51
2022/09/02 10:09:00;;;;;;;0.70;0.67;;;;;;;24.22;43.78;100171.41;5035101;28;20443;-51
2022/09/02 10:11:36;;;;;;;1.13;0.83;;;;;;;24.39;43.76;100167.25;5035444;28;20459;-51
2022/09/02 10:14:07;;;;;;;1.07;0.97;;;;;;;23.90;44.85;100160.63;5035522;28;20446;-52
2022/09/02 10:16:55;;;;;;;0.80;0.60;;;;;;;23.64;44.46;100162.88;5035195;28;20495;-52
2022/09/02 10:19:40;;;;;;;1.13;1.03;;;;;;;23.68;44.43;100158.88;5035120;28;20982;-52
2022/09/02 10:22:28;;;;;;;0.60;0.60;;;;;;;23.98;43.35;100166.25;5035133;28;20458;-52
2022/09/02 10:25:20;;;;;;;2.93;0.40;;;;;;;24.20;42.52;100154.41;5034800;28;21031;-52
2022/09/02 10:27:55;;;;;;;0.80;0.60;;;;;;;24.66;42.31;100153.91;5033432;28;20444;-52
2022/09/02 10:30:23;;;;;;;2.37;1.00;;;;;;;24.10;43.77;100153.47;5052390;28;20442;-52
2022/09/02 10:33:08;;;;;;;0.80;0.63;;;;;;;24.12;43.99;100144.22;5054545;28;20457;-52
2022/09/02 10:36:05;;;;;;;1.03;0.77;;;;;;;24.71;43.07;100131.78;5054847;28;20477;-52
2022/09/02 10:38:31;;;;;;;7.90;1.00;;;;;;;24.66;42.42;100143.03;5054660;28;20815;-52
2022/09/02 10:41:22;;;;;;;0.70;0.60;;;;;;;24.28;42.84;100137.44;5054514;28;20490;-52
2022/09/02 10:44:22;;;;;;;0.70;0.60;;;;;;;24.19;42.60;100139.09;5054757;28;20485;-53
2022/09/02 10:47:00;;;;;;;0.60;0.50;;;;;;;24.78;41.16;100131.06;5054324;28;20536;-52
2022/09/02 10:49:36;;;;;;;13.43;0.70;;;;;;;25.24;40.32;100116.03;5054750;28;20464;-53
2022/09/02 10:52:24;;;;;;;0.77;0.63;;;;;;;25.29;39.25;100115.59;5054598;28;20969;-52
2022/09/02 10:55:03;;;;;;;1.90;0.70;;;;;;;25.10;38.98;100111.00;5054288;28;20439;-53
2022/09/02 10:57:59;;;;;;;0.70;0.70;;;;;;;24.60;38.86;100108.28;5053342;28;20453;-52
2022/09/02 11:00:29;;;;;;;0.60;0.50;;;;;;;25.14;37.99;100103.41;5042190;28;20487;-53
2022/09/02 11:03:29;;;;;;;1.27;0.70;;;;;;;25.18;38.19;100097.53;5034393;28;20827;-52
2022/09/02 11:06:05;;;;;;;6.20;0.50;;;;;;;25.51;37.91;100092.69;5027206;28;20565;-52
2022/09/02 11:08:53;;;;;;;1.33;0.53;;;;;;;25.63;37.89;100105.13;5034642;28;20444;-52
2022/09/02 11:11:56;;;;;;;0.97;0.70;;;;;;;25.47;38.39;100091.25;5034119;28;20447;-52
2022/09/02 11:14:38;;;;;;;11.87;0.60;;;;;;;25.56;37.89;100083.06;5022962;28;20463;-52
2022/09/02 11:17:20;;;;;;;0.60;0.43;;;;;;;25.66;37.60;100075.75;5033978;28;20463;-52
2022/09/02 11:20:08;;;;;;;1.03;0.63;;;;;;;25.31;36.59;100080.94;5033794;28;20929;-52
2022/09/02 11:22:56;;;;;;;0.87;0.87;;;;;;;24.96;37.09;100065.16;5034083;28;20448;-52
2022/09/02 11:25:40;;;;;;;0.60;0.60;;;;;;;24.92;36.95;100053.66;5033761;28;20463;-52
2022/09/02 11:28:44;;;;;;;0.70;0.60;;;;;;;25.18;36.29;100055.88;5033836;28;20443;-52
2022/09/02 11:31:38;;;;;;;2.87;0.53;;;;;;;25.67;36.37;100055.69;5035481;28;20458;-52
2022/09/02 11:34:23;;;;;;;0.80;0.57;;;;;;;25.27;36.65;100069.47;5034089;28;20474;-52
2022/09/02 11:36:50;;;;;;;0.77;0.63;;;;;;;25.44;35.82;100058.88;5033945;28;20494;-52
2022/09/02 11:39:16;;;;;;;0.80;0.50;;;;;;;24.96;36.04;100055.13;5034511;28;21044;-52
2022/09/02 11:42:16;;;;;;;0.60;0.30;;;;;;;25.60;35.25;100057.25;5032930;28;20493;-52
2022/09/02 11:44:52;;;;;;;0.70;0.60;;;;;;;26.31;35.24;100053.22;5033640;28;20463;-53
2022/09/02 11:47:29;;;;;;;12.27;0.90;;;;;;;26.16;34.88;100053.69;5033541;28;20459;-52